This is the latest recevied weather packets stored in our database for station/object K4FB. If no packets are shown the sender has not sent any weather packets the latest 10 day(s).
| Time | Temp. | Humidity | Pressure | Rain* | Wind** | Luminosity | Snow |
|---|---|---|---|---|---|---|---|
| 1777730410 | 26.11° C | 81% | 1012.4 hPa | 0 mm | - | - | - |
| 1777725004 | 21.67° C | 96% | 1011.6 hPa | 0 mm | - | - | - |
| 1777723804 | 21.11° C | 96% | 1011.3 hPa | 0 mm | - | - | - |
| 1777722904 | 20.56° C | 96% | 1011.6 hPa | 0 mm | - | - | - |
| 1777721407 | 20.56° C | 96% | 1011.6 hPa | 0 mm | - | - | - |
| 1777720509 | 20.56° C | 96% | 1011.4 hPa | 0 mm | - | - | - |
| 1777719304 | 20° C | 96% | 1011.3 hPa | 0 mm | - | - | - |
| 1777718403 | 20° C | 96% | 1011.2 hPa | 0 mm | - | - | - |
| 1777718103 | 20° C | 96% | 1011 hPa | 0 mm | - | - | - |
| 1777716909 | 19.44° C | 96% | 1010.9 hPa | 0 mm | - | - | - |
| 1777716012 | 18.89° C | 95% | 1011.1 hPa | 0 mm | - | - | - |
| 1777715115 | 18.89° C | 95% | 1011.2 hPa | 0 mm | - | - | - |
| 1777714503 | 18.89° C | 95% | 1011.3 hPa | 0 mm | - | - | - |
| 1777713604 | 18.89° C | 95% | 1011.5 hPa | 0 mm | - | - | - |
| 1777713308 | 18.89° C | 95% | 1011.7 hPa | 0 mm | - | - | - |
| 1777711204 | 19.44° C | 94% | 1011.8 hPa | 0 mm | - | - | - |
| 1777708203 | 19.44° C | 94% | 1011.6 hPa | 0 mm | - | - | - |
| 1777707912 | 19.44° C | 94% | 1011.7 hPa | 0 mm | - | - | - |
| 1777707604 | 19.44° C | 94% | 1011.7 hPa | 0 mm | - | - | - |
| 1777706704 | 19.44° C | 94% | 1011.8 hPa | 0 mm | - | - | - |
| 1777705804 | 20° C | 93% | 1012 hPa | 0 mm | - | - | - |
| 1777704317 | 20° C | 93% | 1012.2 hPa | 0 mm | - | - | - |
| 1777701612 | 20° C | 92% | 1012.6 hPa | 0 mm | - | - | - |
| 1777700716 | 20.56° C | 92% | 1012.4 hPa | 0 mm | - | - | - |
| 1777698005 | 20.56° C | 90% | 1012.6 hPa | 0 mm | - | - | - |
* Rain latest hour (hover to see other rain measurements)
** Current wind speed in m/s (hover to see current wind gust speed)